createdAt,value
2022-09-25T00:02:08.486Z,42.03
2022-09-25T00:04:37.232Z,38.23
2022-09-25T00:07:05.968Z,36.70
2022-09-25T00:09:34.659Z,42.83
2022-09-25T00:12:03.886Z,41.87
2022-09-25T00:14:32.767Z,39.10
2022-09-25T00:17:01.612Z,42.33
2022-09-25T00:19:49.541Z,42.13
2022-09-25T00:22:18.391Z,42.67
2022-09-25T00:24:47.230Z,43.13
2022-09-25T00:27:16.929Z,40.57
2022-09-25T00:29:47.412Z,38.47
2022-09-25T00:32:16.641Z,43.30
2022-09-25T00:34:47.429Z,44.73
2022-09-25T00:37:16.345Z,43.23
2022-09-25T00:39:44.947Z,42.53
2022-09-25T00:42:14.793Z,48.37
2022-09-25T00:45:01.296Z,45.63
2022-09-25T00:47:40.598Z,60.37
2022-09-25T00:50:18.350Z,53.80
2022-09-25T00:52:48.049Z,51.13
2022-09-25T00:55:17.338Z,51.93
2022-09-25T00:57:49.861Z,54.23
2022-09-25T01:00:18.990Z,53.70
2022-09-25T01:02:53.389Z,55.93
2022-09-25T01:05:28.125Z,54.80
2022-09-25T01:07:59.164Z,60.20
2022-09-25T01:10:28.891Z,54.50
2022-09-25T01:12:59.441Z,54.20
2022-09-25T01:15:35.922Z,50.63
2022-09-25T01:18:16.455Z,52.63
2022-09-25T01:21:08.961Z,54.80
2022-09-25T01:24:05.941Z,55.17
2022-09-25T01:26:57.990Z,50.37
2022-09-25T01:29:32.427Z,53.73
2022-09-25T01:32:06.299Z,50.77
2022-09-25T01:34:42.036Z,51.17
2022-09-25T01:37:21.071Z,45.50
2022-09-25T01:39:58.088Z,42.47
2022-09-25T01:42:30.844Z,43.47
2022-09-25T01:45:04.475Z,41.87
2022-09-25T01:47:37.852Z,35.60
2022-09-25T01:50:11.533Z,30.30
2022-09-25T01:52:44.430Z,38.33
2022-09-25T01:55:19.126Z,38.03
2022-09-25T01:57:54.494Z,39.80
2022-09-25T02:00:27.330Z,37.60
2022-09-25T02:02:58.588Z,38.20
2022-09-25T02:05:31.151Z,39.03
2022-09-25T02:08:04.954Z,36.93
2022-09-25T02:10:38.357Z,42.00
2022-09-25T02:13:10.568Z,37.77
2022-09-25T02:15:45.171Z,35.23
2022-09-25T02:18:34.559Z,39.07
2022-09-25T02:21:13.566Z,39.47
2022-09-25T02:23:53.134Z,37.83
2022-09-25T02:26:28.115Z,40.37
2022-09-25T02:28:57.906Z,40.60
2022-09-25T02:31:35.860Z,45.73
2022-09-25T02:34:07.207Z,43.43
2022-09-25T02:36:38.281Z,41.67
2022-09-25T02:39:09.936Z,39.73
2022-09-25T02:41:52.193Z,38.17
2022-09-25T02:44:32.682Z,42.37
2022-09-25T02:47:15.898Z,43.23
2022-09-25T02:49:52.433Z,47.37
2022-09-25T02:52:28.948Z,44.63
2022-09-25T02:55:05.327Z,47.23
2022-09-25T02:57:43.340Z,44.03
2022-09-25T03:00:13.480Z,46.87
2022-09-25T03:02:49.681Z,47.83
2022-09-25T03:05:21.840Z,44.47
2022-09-25T03:08:08.128Z,49.77
2022-09-25T03:10:39.269Z,44.17
2022-09-25T03:13:19.344Z,54.80
2022-09-25T03:15:52.838Z,50.80
2022-09-25T03:18:23.584Z,48.23
2022-09-25T03:20:52.607Z,54.50
2022-09-25T03:23:21.375Z,53.60
2022-09-25T03:25:50.659Z,49.77
2022-09-25T03:28:20.121Z,47.20
2022-09-25T03:30:58.506Z,47.53
2022-09-25T03:33:30.104Z,44.10
2022-09-25T03:36:03.757Z,44.03
2022-09-25T03:38:32.630Z,44.43
2022-09-25T03:41:01.539Z,46.13
2022-09-25T03:43:36.734Z,52.63
2022-09-25T03:46:06.417Z,47.73
2022-09-25T03:48:37.323Z,48.30
2022-09-25T03:51:07.475Z,54.07
2022-09-25T03:53:36.643Z,56.13
2022-09-25T03:56:07.607Z,59.23
2022-09-25T03:58:37.139Z,60.90
2022-09-25T04:01:06.075Z,56.17
2022-09-25T04:03:38.018Z,64.80
2022-09-25T04:06:08.646Z,55.30
2022-09-25T04:08:38.592Z,57.57
2022-09-25T04:11:07.801Z,63.40
2022-09-25T04:13:38.001Z,61.90
2022-09-25T04:16:08.347Z,53.60
2022-09-25T04:18:42.806Z,54.67
2022-09-25T04:21:13.209Z,66.03
2022-09-25T04:23:42.542Z,70.73
2022-09-25T04:26:11.570Z,64.00
2022-09-25T04:28:40.371Z,62.80
2022-09-25T04:31:09.155Z,64.03
2022-09-25T04:33:48.152Z,54.53
2022-09-25T04:36:19.086Z,46.57
2022-09-25T04:38:48.500Z,51.47
2022-09-25T04:41:19.888Z,50.90
2022-09-25T04:43:49.214Z,50.77
2022-09-25T04:46:22.277Z,48.20
2022-09-25T04:48:52.987Z,49.80
2022-09-25T04:51:22.051Z,51.73
2022-09-25T04:53:50.591Z,44.43
2022-09-25T04:56:19.184Z,48.17
2022-09-25T04:58:49.693Z,45.73
2022-09-25T05:01:20.206Z,49.80
2022-09-25T05:03:50.501Z,46.03
2022-09-25T05:06:21.255Z,52.13
2022-09-25T05:08:50.722Z,51.27
2022-09-25T05:11:19.601Z,49.37
2022-09-25T05:13:51.536Z,50.43
2022-09-25T05:16:20.823Z,51.90
2022-09-25T05:18:50.001Z,57.50
2022-09-25T05:21:20.209Z,57.50
2022-09-25T05:23:48.758Z,54.63
2022-09-25T05:26:17.752Z,52.83
2022-09-25T05:28:50.567Z,53.00
2022-09-25T05:31:19.225Z,53.40
2022-09-25T05:33:48.019Z,57.27
2022-09-25T05:36:18.259Z,52.70
2022-09-25T05:38:49.002Z,56.60
2022-09-25T05:41:18.834Z,55.83
2022-09-25T05:43:48.774Z,56.80
2022-09-25T05:46:17.726Z,57.77
2022-09-25T05:48:46.371Z,56.97
2022-09-25T05:51:15.282Z,54.60
2022-09-25T05:53:44.335Z,54.67
2022-09-25T05:56:16.792Z,52.33
2022-09-25T05:58:45.562Z,51.80
2022-09-25T06:01:14.698Z,52.87
2022-09-25T06:03:43.608Z,49.37
2022-09-25T06:06:12.668Z,49.57
2022-09-25T06:08:41.400Z,49.00
2022-09-25T06:11:11.402Z,50.07
2022-09-25T06:13:48.543Z,47.63
2022-09-25T06:16:20.700Z,47.83
2022-09-25T06:18:49.301Z,46.93
2022-09-25T06:21:17.874Z,51.50
2022-09-25T06:23:46.872Z,49.43
2022-09-25T06:26:15.522Z,50.63
2022-09-25T06:28:45.380Z,51.27
2022-09-25T06:31:13.933Z,49.63
2022-09-25T06:33:43.814Z,48.67
2022-09-25T06:36:12.332Z,46.07
2022-09-25T06:38:40.884Z,53.23
2022-09-25T06:41:09.455Z,47.87
2022-09-25T06:43:38.060Z,46.83
2022-09-25T06:46:08.101Z,45.43
2022-09-25T06:48:36.696Z,44.23
2022-09-25T06:51:05.705Z,43.30
2022-09-25T06:53:34.296Z,42.80
2022-09-25T06:56:03.065Z,42.53
2022-09-25T06:58:31.716Z,39.30
2022-09-25T07:01:00.359Z,43.40
2022-09-25T07:03:49.129Z,39.77
2022-09-25T07:06:20.130Z,42.37
2022-09-25T07:08:49.719Z,41.53
2022-09-25T07:11:20.456Z,38.30
2022-09-25T07:13:54.972Z,41.67
2022-09-25T07:16:26.245Z,36.93
2022-09-25T07:18:57.205Z,38.73
2022-09-25T07:21:27.822Z,37.53
2022-09-25T07:23:58.244Z,37.00
2022-09-25T07:26:28.439Z,36.80
2022-09-25T07:28:59.456Z,36.93
2022-09-25T07:31:30.729Z,34.57
2022-09-25T07:34:05.907Z,35.07
2022-09-25T07:36:34.599Z,31.13
2022-09-25T07:39:03.303Z,31.97
2022-09-25T07:41:32.034Z,31.80
2022-09-25T07:46:49.913Z,31.67
2022-09-25T07:49:20.134Z,30.53
2022-09-25T07:51:48.752Z,30.93
2022-09-25T07:54:17.554Z,37.20
2022-09-25T07:56:46.288Z,36.97
2022-09-25T07:59:14.882Z,40.80
2022-09-25T08:01:45.609Z,36.90
2022-09-25T08:04:17.327Z,32.60
2022-09-25T08:06:47.697Z,31.63
2022-09-25T08:09:16.306Z,27.00
2022-09-25T08:11:45.203Z,25.20
2022-09-25T08:14:15.911Z,25.77
2022-09-25T08:16:44.541Z,25.63
2022-09-25T08:19:14.057Z,29.93
2022-09-25T08:21:42.798Z,28.10
2022-09-25T08:24:13.262Z,24.27
2022-09-25T08:26:42.136Z,24.17
2022-09-25T08:29:11.573Z,25.83
2022-09-25T08:31:41.105Z,21.20
2022-09-25T08:34:38.864Z,19.67
2022-09-25T08:36:59.241Z,22.70
2022-09-25T08:39:29.627Z,21.83
2022-09-25T08:41:58.617Z,23.70
2022-09-25T08:44:30.585Z,23.53
2022-09-25T08:47:20.307Z,26.45
2022-09-25T08:50:00.045Z,23.57
2022-09-25T08:52:29.038Z,20.17
2022-09-25T08:54:59.710Z,18.02
2022-09-25T08:57:35.134Z,23.23
2022-09-25T09:00:08.693Z,20.85
2022-09-25T09:02:43.854Z,18.47
2022-09-25T09:05:20.720Z,19.08
2022-09-25T09:07:54.944Z,16.15
2022-09-25T09:10:35.286Z,15.73
2022-09-25T09:13:15.652Z,14.70
2022-09-25T09:15:48.561Z,15.02
2022-09-25T09:18:23.098Z,13.40
2022-09-25T09:20:54.490Z,12.90
2022-09-25T09:23:24.729Z,12.48
2022-09-25T09:26:15.076Z,13.23
2022-09-25T09:29:06.179Z,12.60
2022-09-25T09:31:46.881Z,14.52
2022-09-25T09:35:05.870Z,14.00
2022-09-25T09:37:49.994Z,13.00
2022-09-25T09:40:27.351Z,11.55
2022-09-25T09:43:06.261Z,11.43
2022-09-25T09:45:44.610Z,15.55
2022-09-25T09:48:17.788Z,12.68
2022-09-25T09:50:52.781Z,12.70
2022-09-25T09:53:30.594Z,9.88
2022-09-25T09:56:08.991Z,11.57
2022-09-25T09:58:47.526Z,9.88
2022-09-25T10:04:11.948Z,9.70
2022-09-25T10:06:46.018Z,9.10
2022-09-25T10:09:17.162Z,7.82
2022-09-25T10:11:48.220Z,7.05
2022-09-25T10:14:22.649Z,9.60
2022-09-25T10:16:53.386Z,8.75
2022-09-25T10:19:24.718Z,9.95
2022-09-25T10:21:58.571Z,7.80
2022-09-25T10:25:01.902Z,9.05
2022-09-25T10:27:33.326Z,8.82
2022-09-25T10:30:15.143Z,10.40
2022-09-25T10:32:46.714Z,8.65
2022-09-25T10:35:17.742Z,9.93
2022-09-25T10:37:50.182Z,8.90
2022-09-25T10:40:29.056Z,7.47
2022-09-25T10:43:23.740Z,8.15
2022-09-25T10:46:10.850Z,7.43
2022-09-25T10:48:58.219Z,10.80
2022-09-25T10:51:27.624Z,7.10
2022-09-25T10:54:13.048Z,8.52
2022-09-25T10:56:42.101Z,6.63
2022-09-25T10:59:16.566Z,6.10
2022-09-25T11:01:48.701Z,6.60
2022-09-25T11:04:19.831Z,7.10
2022-09-25T11:06:52.457Z,6.75
2022-09-25T11:09:24.332Z,9.00
2022-09-25T11:11:55.756Z,8.25
2022-09-25T11:14:32.803Z,9.98
2022-09-25T11:17:06.879Z,7.35
2022-09-25T11:19:37.971Z,6.68
2022-09-25T11:22:19.430Z,5.70
2022-09-25T11:25:01.311Z,6.03
2022-09-25T11:27:37.827Z,5.38
2022-09-25T11:30:12.547Z,5.70
2022-09-25T11:32:52.817Z,5.22
2022-09-25T11:35:45.365Z,5.53
2022-09-25T11:38:45.803Z,6.53
2022-09-25T11:41:23.248Z,7.05
2022-09-25T11:44:23.816Z,6.72
2022-09-25T11:47:01.886Z,5.60
2022-09-25T11:49:34.815Z,8.65
2022-09-25T11:52:22.855Z,7.05
2022-09-25T11:55:14.890Z,7.07
2022-09-25T11:57:56.086Z,9.68
2022-09-25T12:00:32.658Z,8.15
2022-09-25T12:03:21.476Z,6.40
2022-09-25T12:06:08.878Z,7.55
2022-09-25T12:08:52.697Z,7.60
2022-09-25T12:11:28.706Z,11.13
2022-09-25T12:14:03.485Z,7.00
2022-09-25T12:16:41.391Z,7.43
2022-09-25T12:19:29.662Z,8.23
2022-09-25T12:22:05.851Z,7.40
2022-09-25T12:24:48.121Z,7.05
2022-09-25T12:27:24.320Z,6.70
2022-09-25T12:30:12.049Z,6.90
2022-09-25T12:33:00.120Z,6.40
2022-09-25T12:35:39.640Z,6.15
2022-09-25T12:38:20.259Z,7.68
2022-09-25T12:40:55.821Z,6.68
2022-09-25T12:43:28.969Z,6.43
2022-09-25T12:46:07.224Z,6.22
2022-09-25T12:48:39.199Z,6.20
2022-09-25T12:51:15.593Z,10.30
2022-09-25T12:53:50.767Z,6.10
2022-09-25T12:56:25.693Z,6.18
2022-09-25T12:59:06.058Z,5.88
2022-09-25T13:01:45.493Z,5.57
2022-09-25T13:04:35.288Z,6.97
2022-09-25T13:07:15.015Z,6.22
2022-09-25T13:09:47.034Z,7.30
2022-09-25T13:12:26.388Z,5.35
2022-09-25T13:15:00.440Z,6.85
2022-09-25T13:17:29.512Z,6.18
2022-09-25T13:20:44.928Z,5.90
2022-09-25T13:23:15.456Z,6.47
2022-09-25T13:25:48.604Z,11.60
2022-09-25T13:28:22.984Z,6.68
2022-09-25T13:31:09.095Z,6.00
2022-09-25T13:33:49.502Z,5.65
2022-09-25T13:36:36.217Z,8.35
2022-09-25T13:39:24.939Z,11.18
2022-09-25T13:41:59.292Z,5.78
2022-09-25T13:44:58.111Z,5.88
2022-09-25T13:47:54.937Z,5.65
2022-09-25T13:50:32.614Z,6.07
2022-09-25T13:53:22.957Z,5.80
2022-09-25T13:56:28.087Z,7.40
2022-09-25T13:59:26.579Z,6.40
2022-09-25T14:01:58.462Z,9.57
2022-09-25T14:04:37.650Z,6.53
2022-09-25T14:07:19.323Z,6.45
2022-09-25T14:09:50.496Z,5.70
2022-09-25T14:12:44.837Z,7.07
2022-09-25T14:15:36.312Z,6.38
2022-09-25T14:18:08.985Z,6.03
2022-09-25T14:20:41.235Z,6.13
2022-09-25T14:23:15.857Z,6.28
2022-09-25T14:25:47.011Z,6.18
2022-09-25T14:28:22.095Z,6.07
2022-09-25T14:31:09.846Z,5.97
2022-09-25T14:34:02.870Z,7.43
2022-09-25T14:36:39.448Z,7.22
2022-09-25T14:39:30.191Z,6.45
2022-09-25T14:42:37.203Z,4.57
2022-09-25T14:45:44.053Z,4.45
2022-09-25T14:48:18.565Z,5.70
2022-09-25T14:50:50.888Z,4.93
2022-09-25T14:53:27.725Z,4.57
2022-09-25T14:55:57.866Z,6.75
2022-09-25T14:58:31.147Z,5.85
2022-09-25T15:01:05.812Z,5.00
2022-09-25T15:03:42.457Z,4.10
2022-09-25T15:06:16.038Z,4.57
2022-09-25T15:08:45.199Z,5.57
2022-09-25T15:11:15.241Z,6.90
2022-09-25T15:13:45.081Z,5.18
2022-09-25T15:16:33.786Z,6.47
2022-09-25T15:19:11.650Z,6.63
2022-09-25T15:21:44.018Z,4.93
2022-09-25T15:24:17.648Z,4.68
2022-09-25T15:26:50.836Z,4.43
2022-09-25T15:29:23.049Z,5.25
2022-09-25T15:31:52.967Z,4.38
2022-09-25T15:34:25.908Z,4.93
2022-09-25T15:36:55.522Z,6.68
2022-09-25T15:39:26.081Z,4.72
2022-09-25T15:41:55.552Z,5.10
2022-09-25T15:44:26.194Z,7.20
2022-09-25T15:46:56.946Z,4.55
2022-09-25T15:49:31.964Z,4.57
2022-09-25T15:52:04.140Z,6.53
2022-09-25T15:54:38.835Z,8.93
2022-09-25T15:57:11.320Z,6.22
2022-09-25T16:00:04.489Z,6.88
2022-09-25T16:02:54.031Z,5.68
2022-09-25T16:05:30.055Z,7.25
2022-09-25T16:08:17.853Z,5.32
2022-09-25T16:10:50.297Z,4.90
2022-09-25T16:13:25.665Z,5.13
2022-09-25T16:15:56.243Z,5.47
2022-09-25T16:18:39.635Z,4.93
2022-09-25T16:21:17.940Z,4.80
2022-09-25T16:23:56.154Z,6.45
2022-09-25T16:26:30.029Z,10.50
2022-09-25T16:29:05.944Z,8.27
2022-09-25T16:31:36.493Z,5.67
2022-09-25T16:34:06.756Z,6.50
2022-09-25T16:36:43.971Z,6.07
2022-09-25T16:39:16.754Z,5.97
2022-09-25T16:41:49.408Z,6.23
2022-09-25T16:44:19.876Z,8.57
2022-09-25T16:47:07.650Z,6.60
2022-09-25T16:49:36.271Z,7.03
2022-09-25T16:52:08.949Z,7.10
2022-09-25T16:54:39.178Z,7.40
2022-09-25T16:57:08.567Z,7.40
2022-09-25T16:59:37.384Z,8.20
2022-09-25T17:02:21.329Z,12.37
2022-09-25T17:04:50.767Z,14.10
2022-09-25T17:07:21.283Z,10.63
2022-09-25T17:09:50.146Z,14.33
2022-09-25T17:12:22.703Z,15.17
2022-09-25T17:14:51.956Z,18.10
2022-09-25T17:17:22.171Z,16.23
2022-09-25T17:19:51.362Z,15.20
2022-09-25T17:22:24.679Z,12.97
2022-09-25T17:24:53.207Z,12.47
2022-09-25T17:27:21.767Z,13.63
2022-09-25T17:29:51.640Z,15.73
2022-09-25T17:32:20.291Z,15.37
2022-09-25T17:34:49.021Z,23.07
2022-09-25T17:37:17.541Z,22.33
2022-09-25T17:39:47.730Z,19.63
2022-09-25T17:42:17.209Z,18.80
2022-09-25T17:44:49.326Z,16.60
2022-09-25T17:47:17.948Z,18.70
2022-09-25T17:49:46.940Z,16.20
2022-09-25T17:52:19.834Z,15.67
2022-09-25T17:54:49.676Z,18.87
2022-09-25T17:57:18.199Z,12.80
2022-09-25T17:59:46.955Z,13.00
2022-09-25T18:02:17.606Z,14.23
2022-09-25T18:04:46.323Z,13.37
2022-09-25T18:07:15.310Z,19.23
2022-09-25T18:09:43.868Z,15.33
2022-09-25T18:12:13.911Z,12.77
2022-09-25T18:14:43.069Z,11.50
2022-09-25T18:17:11.727Z,13.03
2022-09-25T18:19:57.936Z,12.50
2022-09-25T18:22:28.158Z,15.40
2022-09-25T18:24:57.444Z,15.93
2022-09-25T18:27:29.768Z,21.70
2022-09-25T18:29:58.332Z,16.43
2022-09-25T18:32:26.963Z,15.10
2022-09-25T18:34:55.488Z,15.23
2022-09-25T18:37:24.110Z,15.13
2022-09-25T18:39:52.767Z,18.63
2022-09-25T18:42:21.484Z,17.07
2022-09-25T18:44:51.477Z,16.63
2022-09-25T18:47:20.167Z,19.27
2022-09-25T18:49:48.840Z,18.03
2022-09-25T18:52:17.557Z,15.23
2022-09-25T18:54:46.819Z,14.17
2022-09-25T18:57:16.387Z,15.50
2022-09-25T18:59:45.509Z,18.00
2022-09-25T19:02:21.442Z,16.43
2022-09-25T19:04:51.501Z,16.27
2022-09-25T19:07:20.935Z,17.87
2022-09-25T19:09:49.768Z,16.90
2022-09-25T19:12:18.925Z,16.60
2022-09-25T19:14:48.881Z,19.50
2022-09-25T19:17:20.755Z,19.20
2022-09-25T19:19:49.638Z,18.60
2022-09-25T19:22:21.197Z,18.30
2022-09-25T19:24:51.229Z,22.57
2022-09-25T19:27:20.431Z,23.70
2022-09-25T19:29:49.136Z,23.10
2022-09-25T19:32:20.143Z,20.57
2022-09-25T19:34:49.965Z,19.27
2022-09-25T19:37:19.619Z,18.67
2022-09-25T19:40:02.127Z,19.77
2022-09-25T19:42:33.781Z,23.73
2022-09-25T19:45:03.083Z,24.57
2022-09-25T19:47:33.711Z,20.43
2022-09-25T19:50:04.317Z,21.97
2022-09-25T19:52:33.002Z,21.87
2022-09-25T19:55:01.743Z,24.60
2022-09-25T19:57:30.841Z,20.87
2022-09-25T20:00:00.459Z,20.53
2022-09-25T20:02:29.305Z,21.70
2022-09-25T20:05:00.166Z,21.77
2022-09-25T20:07:29.305Z,23.53
2022-09-25T20:09:58.061Z,22.43
2022-09-25T20:12:26.875Z,20.37
2022-09-25T20:14:55.511Z,23.70
2022-09-25T20:17:24.286Z,22.80
2022-09-25T20:19:52.909Z,21.77
2022-09-25T20:22:23.150Z,23.93
2022-09-25T20:24:52.219Z,25.77
2022-09-25T20:27:23.492Z,25.60
2022-09-25T20:29:52.950Z,30.13
2022-09-25T20:32:22.138Z,39.37
2022-09-25T20:34:51.531Z,43.20
2022-09-25T20:37:20.269Z,37.53
2022-09-25T20:39:51.628Z,43.23
2022-09-25T20:42:21.384Z,31.60
2022-09-25T20:44:51.504Z,26.23
2022-09-25T20:47:20.334Z,28.17
2022-09-25T20:49:49.449Z,24.13
2022-09-25T20:52:18.171Z,27.37
2022-09-25T20:54:47.099Z,24.97
2022-09-25T20:57:18.648Z,29.83
2022-09-25T20:59:47.455Z,26.40
2022-09-25T21:02:16.435Z,24.43
2022-09-25T21:04:45.882Z,25.97
2022-09-25T21:07:17.194Z,25.27
2022-09-25T21:09:46.246Z,27.73
2022-09-25T21:12:16.844Z,33.47
2022-09-25T21:14:45.544Z,36.97
2022-09-25T21:17:14.211Z,33.00
2022-09-25T21:19:43.017Z,33.90
2022-09-25T21:22:12.066Z,29.30
2022-09-25T21:24:41.181Z,28.23
2022-09-25T21:27:09.819Z,29.43
2022-09-25T21:29:40.225Z,28.87
2022-09-25T21:32:09.021Z,28.67
2022-09-25T21:34:37.769Z,29.20
2022-09-25T21:37:06.433Z,25.83
2022-09-25T21:39:35.282Z,24.53
2022-09-25T21:42:04.892Z,23.80
2022-09-25T21:44:33.451Z,24.43
2022-09-25T21:47:03.614Z,23.87
2022-09-25T21:49:32.305Z,24.93
2022-09-25T21:52:00.952Z,23.70
2022-09-25T21:54:30.496Z,25.00
2022-09-25T21:56:59.179Z,23.47
2022-09-25T21:59:28.015Z,25.33
2022-09-25T22:01:58.576Z,24.40
2022-09-25T22:04:28.736Z,25.00
2022-09-25T22:06:58.832Z,26.37
2022-09-25T22:09:27.993Z,25.87
2022-09-25T22:11:56.720Z,28.40
2022-09-25T22:14:25.503Z,26.10
2022-09-25T22:16:54.348Z,25.90
2022-09-25T22:19:25.101Z,26.00
2022-09-25T22:21:58.079Z,24.70
2022-09-25T22:24:28.120Z,24.77
2022-09-25T22:26:57.748Z,24.53
2022-09-25T22:29:26.959Z,27.20
2022-09-25T22:31:55.536Z,24.03
2022-09-25T22:34:27.138Z,24.90
2022-09-25T22:37:00.281Z,26.77
2022-09-25T22:39:30.296Z,25.30
2022-09-25T22:41:59.516Z,27.93
2022-09-25T22:44:28.110Z,25.83
2022-09-25T22:46:57.422Z,29.83
2022-09-25T22:49:26.348Z,28.57
2022-09-25T22:51:56.695Z,26.27
2022-09-25T22:54:25.519Z,27.20
2022-09-25T22:56:54.402Z,26.57
2022-09-25T22:59:23.228Z,28.67
2022-09-25T23:01:54.295Z,28.83
2022-09-25T23:04:25.114Z,26.83
2022-09-25T23:06:54.771Z,27.70
2022-09-25T23:09:27.103Z,30.87
2022-09-25T23:11:56.952Z,29.30
2022-09-25T23:14:28.473Z,29.07
2022-09-25T23:16:57.901Z,28.90
2022-09-25T23:19:27.009Z,27.37
2022-09-25T23:21:56.274Z,30.93
2022-09-25T23:24:27.030Z,31.30
2022-09-25T23:26:55.598Z,32.80
2022-09-25T23:29:24.765Z,29.47
2022-09-25T23:31:53.886Z,30.47
2022-09-25T23:34:22.562Z,30.43
2022-09-25T23:36:51.170Z,28.37
2022-09-25T23:39:21.548Z,28.97
2022-09-25T23:41:51.905Z,28.40
2022-09-25T23:44:20.576Z,28.77
2022-09-25T23:46:49.347Z,29.53
2022-09-25T23:49:18.430Z,29.63
2022-09-25T23:51:48.217Z,29.37
2022-09-25T23:54:18.349Z,30.40
2022-09-25T23:56:47.010Z,28.97
2022-09-25T23:59:17.699Z,27.93
